Time;durP1;ratioP1;P1;durP2;ratioP2;P2;SDS_P1;SDS_P2;PMS_P1;PMS_P2;Temp;Humidity;BMP_temperature;BMP_pressure;BME280_temperature;BME280_humidity;BME280_pressure;Samples;Min_cycle;Max_cycle;Signal;HPM_P1;HPM_P2
2022/05/24 00:02:05;;;;;;;;;;;;;;;8.15;37.93;97960.47;5051760;28;19924;-65
2022/05/24 00:04:31;;;;;;;;;;;;;;;8.14;37.99;97963.34;5052296;28;20372;-64
2022/05/24 00:06:57;;;;;;;;;;;;;;;8.11;37.83;97962.03;5051083;28;19971;-63
2022/05/24 00:09:22;;;;;;;;;;;;;;;8.08;37.44;97959.09;5052860;28;19952;-65
2022/05/24 00:11:48;;;;;;;;;;;;;;;8.09;37.49;97964.16;5049937;28;19928;-64
2022/05/24 00:14:13;;;;;;;;;;;;;;;8.09;37.65;97956.22;5052077;28;19928;-64
2022/05/24 00:16:39;;;;;;;;;;;;;;;8.08;37.55;97953.81;5050175;28;20297;-66
2022/05/24 00:19:05;;;;;;;;;;;;;;;8.09;37.82;97952.78;5051730;28;19929;-65
2022/05/24 00:21:31;;;;;;;;;;;;;;;8.07;37.80;97955.69;5051589;28;19958;-65
2022/05/24 00:23:56;;;;;;;;;;;;;;;8.03;38.23;97956.44;5050472;28;19936;-65
2022/05/24 00:26:27;;;;;;;;;;;;;;;7.99;38.62;97958.78;5050838;28;20025;-64
2022/05/24 00:28:53;;;;;;;;;;;;;;;7.99;38.60;97955.38;5050584;28;19967;-65
2022/05/24 00:31:18;;;;;;;;;;;;;;;7.99;38.98;97958.78;5050849;28;19924;-64
2022/05/24 00:33:44;;;;;;;;;;;;;;;7.99;38.93;97960.63;5051631;28;19932;-64
2022/05/24 00:36:09;;;;;;;;;;;;;;;7.99;39.91;97953.50;5049913;28;20015;-63
2022/05/24 00:38:39;;;;;;;;;;;;;;;7.97;39.38;97959.06;5052302;28;20019;-64
2022/05/24 00:41:08;;;;;;;;;;;;;;;7.95;39.32;97953.22;5051955;28;19931;-65
2022/05/24 00:43:36;;;;;;;;;;;;;;;7.91;39.05;97952.16;5051824;28;19928;-64
2022/05/24 00:46:17;;;;;;;;;;;;;;;7.89;39.02;97953.47;5033711;28;20382;-64
2022/05/24 00:48:52;;;;;;;;;;;;;;;7.89;39.06;97958.75;5033429;28;19967;-64
2022/05/24 00:51:20;;;;;;;;;;;;;;;7.86;38.57;97960.03;5051833;28;20419;-62
2022/05/24 00:53:48;;;;;;;;;;;;;;;7.84;38.58;97961.34;5050275;28;19932;-64
2022/05/24 00:56:16;;;;;;;;;;;;;;;7.84;38.84;97966.63;5051074;28;20024;-64
2022/05/24 00:58:41;;;;;;;;;;;;;;;7.80;38.02;97965.53;5050051;28;20413;-64
2022/05/24 01:01:15;;;;;;;;;;;;;;;7.77;38.22;97958.94;5051321;28;19979;-64
2022/05/24 01:03:41;;;;;;;;;;;;;;;7.76;38.50;97967.88;5050259;28;19933;-64
2022/05/24 01:06:06;;;;;;;;;;;;;;;7.71;38.52;97958.09;5050958;28;19931;-64
2022/05/24 01:08:32;;;;;;;;;;;;;;;7.63;38.74;97955.94;5050751;28;19936;-63
2022/05/24 01:10:58;;;;;;;;;;;;;;;7.61;38.67;97950.09;5049989;28;20413;-65
2022/05/24 01:13:24;;;;;;;;;;;;;;;7.59;39.02;97956.66;5050286;28;20348;-64
2022/05/24 01:15:51;;;;;;;;;;;;;;;7.56;38.66;97954.53;5050055;28;19948;-64
2022/05/24 01:18:16;;;;;;;;;;;;;;;7.52;38.97;97951.63;5051462;28;19931;-64
2022/05/24 01:20:43;;;;;;;;;;;;;;;7.52;38.10;97959.53;5050141;28;19926;-64
2022/05/24 01:23:16;;;;;;;;;;;;;;;7.58;37.49;97960.38;5051574;28;20102;-64
2022/05/24 01:25:57;;;;;;;;;;;;;;;7.64;37.35;97962.00;5053384;28;19925;-64
2022/05/24 01:28:41;;;;;;;;;;;;;;;7.71;37.48;97967.88;5054784;28;20285;-64
2022/05/24 01:31:08;;;;;;;;;;;;;;;7.72;36.83;97962.31;5053618;28;20401;-64
2022/05/24 01:36:19;;;;;;;;;;;;;;;7.71;36.79;97958.09;5054970;28;19932;-65
2022/05/24 01:38:48;;;;;;;;;;;;;;;7.71;36.19;97960.75;5053411;28;19928;-63
2022/05/24 01:41:18;;;;;;;;;;;;;;;7.77;36.14;97964.22;5053268;28;20038;-64
2022/05/24 01:43:43;;;;;;;;;;;;;;;7.81;36.08;97960.00;5052773;28;19936;-64
2022/05/24 01:46:10;;;;;;;;;;;;;;;7.84;36.66;97963.97;5036743;28;19932;-65
2022/05/24 01:48:47;;;;;;;;;;;;;;;7.88;37.05;97963.22;5054242;28;19951;-64
2022/05/24 01:51:14;;;;;;;;;;;;;;;7.90;37.75;97953.19;5054419;28;19925;-64
2022/05/24 01:53:44;;;;;;;;;;;;;;;7.91;37.29;97956.63;5053137;28;19928;-64
2022/05/24 01:56:11;;;;;;;;;;;;;;;7.93;37.65;97950.06;5053300;28;20336;-64
2022/05/24 01:58:37;;;;;;;;;;;;;;;7.97;37.95;97952.97;5052984;28;19935;-65
2022/05/24 02:01:08;;;;;;;;;;;;;;;8.03;38.46;97954.59;5052369;28;20305;-64
2022/05/24 02:03:36;;;;;;;;;;;;;;;8.09;38.54;97958.03;5053223;28;19928;-64
2022/05/24 02:06:16;;;;;;;;;;;;;;;8.14;38.67;97956.22;5054304;28;20028;-64
2022/05/24 02:08:42;;;;;;;;;;;;;;;8.17;39.05;97961.00;5054256;28;19936;-64
2022/05/24 02:11:10;;;;;;;;;;;;;;;8.27;39.11;97970.03;5052848;28;19971;-64
2022/05/24 02:13:37;;;;;;;;;;;;;;;8.26;39.98;97956.03;5052880;28;19929;-64
2022/05/24 02:16:03;;;;;;;;;;;;;;;8.29;40.26;97963.44;5053959;28;19924;-65
2022/05/24 02:18:28;;;;;;;;;;;;;;;8.36;40.15;97955.28;5053671;28;19935;-64
2022/05/24 02:20:54;;;;;;;;;;;;;;;8.45;40.32;97955.63;5052816;28;19924;-65
2022/05/24 02:23:20;;;;;;;;;;;;;;;8.52;40.56;97949.03;5053575;28;20047;-63
2022/05/24 02:25:45;;;;;;;;;;;;;;;8.62;40.59;97945.66;5052395;28;20310;-64
2022/05/24 02:28:11;;;;;;;;;;;;;;;8.67;40.37;97950.94;5053333;28;19947;-64
2022/05/24 02:30:38;;;;;;;;;;;;;;;8.80;40.58;97954.94;5053823;28;19971;-64
2022/05/24 02:33:03;;;;;;;;;;;;;;;8.91;39.88;97959.19;5053618;28;19925;-64
2022/05/24 02:35:31;;;;;;;;;;;;;;;8.96;39.71;97951.28;5052959;28;19936;-64
2022/05/24 02:37:56;;;;;;;;;;;;;;;9.02;40.08;97954.72;5053334;28;19924;-64
2022/05/24 02:43:05;;;;;;;;;;;;;;;9.05;40.43;97960.25;5053394;28;19925;-65
2022/05/24 02:45:31;;;;;;;;;;;;;;;9.05;39.75;97949.69;5053644;28;19990;-64
2022/05/24 02:47:56;;;;;;;;;;;;;;;9.05;40.11;97962.91;5052021;28;20423;-63
2022/05/24 02:50:22;;;;;;;;;;;;;;;9.04;40.22;97956.03;5053113;28;19935;-65
2022/05/24 02:52:48;;;;;;;;;;;;;;;9.06;40.27;97953.16;5053334;28;20393;-63
2022/05/24 02:55:14;;;;;;;;;;;;;;;9.02;40.36;97957.34;5053089;28;20397;-64
2022/05/24 02:57:41;;;;;;;;;;;;;;;9.06;40.69;97956.59;5035636;28;19928;-63
2022/05/24 03:00:11;;;;;;;;;;;;;;;9.09;40.00;97957.91;5053496;28;19935;-64
2022/05/24 03:02:36;;;;;;;;;;;;;;;9.12;40.22;97960.03;5053256;28;19983;-65
2022/05/24 03:05:02;;;;;;;;;;;;;;;9.13;40.58;97955.53;5053084;28;20417;-63
2022/05/24 03:10:12;;;;;;;;;;;;;;;9.13;40.02;97956.31;5051872;28;19932;-64
2022/05/24 03:15:22;;;;;;;;;;;;;;;9.07;39.89;97960.81;5053088;28;19939;-66
2022/05/24 03:17:47;;;;;;;;;;;;;;;9.06;39.84;97953.94;5052503;28;20019;-64
2022/05/24 03:20:13;;;;;;;;;;;;;;;9.02;39.32;97944.94;5053098;28;19935;-64
2022/05/24 03:22:38;;;;;;;;;;;;;;;9.02;40.54;97960.00;5052763;28;20397;-64
2022/05/24 03:25:05;;;;;;;;;;;;;;;9.03;40.02;97967.69;5053110;28;20340;-65
2022/05/24 03:27:31;;;;;;;;;;;;;;;8.98;40.19;97970.31;5052490;28;19936;-65
2022/05/24 03:29:56;;;;;;;;;;;;;;;8.93;40.54;97972.16;5052451;28;19929;-65
2022/05/24 03:32:22;;;;;;;;;;;;;;;8.81;40.56;97959.97;5051927;28;19976;-64
2022/05/24 03:34:47;;;;;;;;;;;;;;;8.83;40.95;97955.22;5051165;28;19935;-65
2022/05/24 03:37:13;;;;;;;;;;;;;;;8.89;40.41;97963.94;5052616;28;19925;-64
2022/05/24 03:39:38;;;;;;;;;;;;;;;8.90;40.26;97972.66;5052421;28;20389;-64
2022/05/24 03:42:04;;;;;;;;;;;;;;;8.89;40.13;97973.72;5051991;28;19924;-65
2022/05/24 03:44:30;;;;;;;;;;;;;;;8.91;40.45;97961.03;5034519;28;20370;-64
2022/05/24 03:46:56;;;;;;;;;;;;;;;8.95;39.84;97959.47;5052260;28;19975;-65
2022/05/24 03:49:21;;;;;;;;;;;;;;;8.99;39.76;97955.25;5051640;28;20409;-64
2022/05/24 03:51:47;;;;;;;;;;;;;;;8.92;39.24;97968.72;5051772;28;19925;-64
2022/05/24 03:54:12;;;;;;;;;;;;;;;8.94;38.74;97968.44;5052554;28;20030;-64
2022/05/24 03:56:38;;;;;;;;;;;;;;;8.99;38.98;97966.59;5052843;28;20360;-64
2022/05/24 03:59:04;;;;;;;;;;;;;;;9.04;38.78;97965.84;5051959;28;19932;-65
2022/05/24 04:01:30;;;;;;;;;;;;;;;9.08;38.61;97958.94;5050388;28;20024;-64
2022/05/24 04:03:56;;;;;;;;;;;;;;;9.20;37.47;97967.41;5050765;28;20006;-64
2022/05/24 04:06:21;;;;;;;;;;;;;;;9.26;36.80;97969.00;5050099;28;19987;-64
2022/05/24 04:08:47;;;;;;;;;;;;;;;9.43;36.88;97965.34;5050254;28;19929;-63
2022/05/24 04:11:13;;;;;;;;;;;;;;;9.42;35.27;97953.97;5052109;28;19924;-64
2022/05/24 04:13:40;;;;;;;;;;;;;;;9.59;35.46;97959.00;5051852;28;19929;-63
2022/05/24 04:16:07;;;;;;;;;;;;;;;9.66;34.12;97956.06;5051530;28;19924;-65
2022/05/24 04:18:33;;;;;;;;;;;;;;;9.76;33.25;97958.69;5051617;28;20015;-62
2022/05/24 04:20:58;;;;;;;;;;;;;;;9.78;32.44;97949.44;5050429;28;20016;-64
2022/05/24 04:23:25;;;;;;;;;;;;;;;9.90;32.10;97941.22;5050683;28;19978;-64
2022/05/24 04:25:51;;;;;;;;;;;;;;;10.00;30.64;97949.16;5051524;28;19933;-65
2022/05/24 04:28:20;;;;;;;;;;;;;;;9.98;30.29;97942.53;5051568;28;19925;-63
2022/05/24 04:30:46;;;;;;;;;;;;;;;10.19;29.83;97949.34;5051718;28;20011;-64
2022/05/24 04:33:12;;;;;;;;;;;;;;;10.27;29.92;97952.53;5033849;28;20340;-64
2022/05/24 04:35:37;;;;;;;;;;;;;;;10.26;29.16;97953.56;5049847;28;19924;-65
2022/05/24 04:38:03;;;;;;;;;;;;;;;10.27;29.43;97953.34;5051727;28;20519;-64
2022/05/24 04:43:13;;;;;;;;;;;;;;;10.29;30.41;97948.53;5071572;28;19924;-63
2022/05/24 04:45:38;;;;;;;;;;;;;;;10.43;29.57;97952.19;5071627;28;19931;-63
2022/05/24 04:48:06;;;;;;;;;;;;;;;10.41;30.08;97958.81;5069925;28;19971;-64
2022/05/24 04:50:33;;;;;;;;;;;;;;;10.41;29.62;97949.06;5069804;28;19924;-64
2022/05/24 04:52:58;;;;;;;;;;;;;;;10.39;29.45;97951.16;5069828;28;19974;-64
2022/05/24 04:55:26;;;;;;;;;;;;;;;10.25;29.59;97950.13;5071994;28;19928;-64
2022/05/24 04:57:55;;;;;;;;;;;;;;;10.34;28.75;97947.75;5072874;28;19920;-62
2022/05/24 05:00:21;;;;;;;;;;;;;;;10.48;29.05;97946.09;5054365;28;19933;-63
2022/05/24 05:02:47;;;;;;;;;;;;;;;10.67;29.57;97947.06;5055322;28;19925;-64
2022/05/24 05:05:13;;;;;;;;;;;;;;;10.76;28.80;97947.28;5053901;28;20400;-65
2022/05/24 05:07:39;;;;;;;;;;;;;;;10.88;29.32;97949.59;5054717;28;19928;-64
2022/05/24 05:10:05;;;;;;;;;;;;;;;11.01;29.47;97970.22;5055335;28;19935;-65
2022/05/24 05:12:30;;;;;;;;;;;;;;;10.83;28.57;97942.47;5054670;28;19925;-67
2022/05/24 05:14:56;;;;;;;;;;;;;;;10.63;27.88;97956.63;5037271;28;19978;-64
2022/05/24 05:17:22;;;;;;;;;;;;;;;10.67;26.97;97943.63;5054700;28;19929;-67
2022/05/24 05:19:47;;;;;;;;;;;;;;;10.72;27.86;97951.53;5054622;28;19929;-65
2022/05/24 05:22:14;;;;;;;;;;;;;;;10.77;27.64;97942.78;5054372;28;20329;-63
2022/05/24 05:24:40;;;;;;;;;;;;;;;10.77;27.67;97951.53;5053535;28;20402;-64
2022/05/24 05:27:05;;;;;;;;;;;;;;;10.77;28.17;97961.34;5074789;28;19978;-65
2022/05/24 05:32:22;;;;;;;;;;;;;;;10.98;28.41;97935.50;5063908;28;19928;-64
2022/05/24 05:34:48;;;;;;;;;;;;;;;10.89;28.32;97933.44;5053996;28;20413;-65
2022/05/24 05:37:13;;;;;;;;;;;;;;;10.88;28.17;97942.47;5053245;28;19964;-65
2022/05/24 05:39:39;;;;;;;;;;;;;;;10.79;28.14;97940.63;5036463;28;19924;-65
2022/05/24 05:42:05;;;;;;;;;;;;;;;10.87;28.25;97945.38;5051574;28;20115;-64
2022/05/24 05:44:31;;;;;;;;;;;;;;;10.80;28.41;97942.25;5051928;28;20453;-66
2022/05/24 05:46:57;;;;;;;;;;;;;;;10.89;28.97;97940.59;5050923;28;20027;-65
2022/05/24 05:49:23;;;;;;;;;;;;;;;10.82;28.84;97938.22;5034016;28;20019;-66
2022/05/24 05:51:50;;;;;;;;;;;;;;;10.78;28.80;97941.72;5051152;28;19928;-65
2022/05/24 05:54:16;;;;;;;;;;;;;;;10.90;29.10;97942.97;5052736;28;19978;-66
2022/05/24 05:56:42;;;;;;;;;;;;;;;10.87;28.72;97948.03;5034525;28;20027;-65
2022/05/24 05:59:07;;;;;;;;;;;;;;;10.95;28.79;97944.78;5051218;28;20019;-65
2022/05/24 06:01:33;;;;;;;;;;;;;;;11.06;29.42;97942.84;5050300;28;19936;-65
2022/05/24 06:04:00;;;;;;;;;;;;;;;11.22;28.91;97944.34;5049742;28;19994;-64
2022/05/24 06:06:28;;;;;;;;;;;;;;;11.29;28.85;97949.31;5050985;28;19929;-65
2022/05/24 06:08:54;;;;;;;;;;;;;;;11.31;29.63;97945.34;5050742;28;19978;-64
2022/05/24 06:11:20;;;;;;;;;;;;;;;11.39;29.46;97938.66;5030116;28;19925;-64
2022/05/24 06:13:51;;;;;;;;;;;;;;;11.57;29.41;97931.88;5031557;28;19929;-65
2022/05/24 06:16:18;;;;;;;;;;;;;;;11.77;28.73;97928.25;5044671;28;20385;-66
2022/05/24 06:18:45;;;;;;;;;;;;;;;12.05;28.54;97935.38;5034312;28;20023;-65
2022/05/24 06:21:10;;;;;;;;;;;;;;;11.93;28.21;97948.28;5050455;28;20475;-65
2022/05/24 06:23:36;;;;;;;;;;;;;;;11.69;28.04;97950.06;5050769;28;20694;-65
2022/05/24 06:26:02;;;;;;;;;;;;;;;11.55;27.42;97942.75;5050690;28;19925;-65
2022/05/24 06:28:28;;;;;;;;;;;;;;;11.74;25.99;97939.41;5050354;28;20321;-65
2022/05/24 06:30:54;;;;;;;;;;;;;;;11.76;26.85;97935.38;5051329;28;19931;-63
2022/05/24 06:33:20;;;;;;;;;;;;;;;11.75;25.52;97944.44;5050409;28;19929;-65
2022/05/24 06:35:45;;;;;;;;;;;;;;;11.73;25.42;97940.47;5051444;28;19924;-66
2022/05/24 06:38:11;;;;;;;;;;;;;;;11.70;25.04;97955.09;5051790;28;19986;-65
2022/05/24 06:40:38;;;;;;;;;;;;;;;11.57;24.98;97959.19;5049869;28;19925;-66
2022/05/24 06:43:04;;;;;;;;;;;;;;;11.46;25.53;97957.69;5034623;28;20029;-64
2022/05/24 06:45:34;;;;;;;;;;;;;;;11.58;26.19;97967.94;5050954;28;20301;-66
2022/05/24 06:48:01;;;;;;;;;;;;;;;11.51;27.92;97970.91;5018131;28;20329;-65
2022/05/24 06:50:27;;;;;;;;;;;;;;;11.49;28.24;97961.66;5018061;28;19925;-64
2022/05/24 06:52:56;;;;;;;;;;;;;;;11.30;28.72;97964.19;5052155;28;20309;-66
2022/05/24 06:55:22;;;;;;;;;;;;;;;11.35;29.82;97964.13;5050836;28;20484;-65
2022/05/24 06:57:48;;;;;;;;;;;;;;;11.32;31.05;97975.31;5030014;28;20008;-65
2022/05/24 07:03:01;;;;;;;;;;;;;;;11.19;32.84;97970.63;5030552;28;20295;-64
2022/05/24 07:05:27;;;;;;;;;;;;;;;11.18;33.05;97969.03;5046184;28;19936;-64
2022/05/24 07:07:53;;;;;;;;;;;;;;;11.26;33.05;97981.72;5049235;28;19929;-65
2022/05/24 07:10:20;;;;;;;;;;;;;;;11.32;33.09;97991.22;5051207;28;19959;-65
2022/05/24 07:12:45;;;;;;;;;;;;;;;11.24;30.68;97981.22;5050953;28;19928;-64
2022/05/24 07:15:11;;;;;;;;;;;;;;;11.18;30.55;97991.06;5049866;28;19964;-65
2022/05/24 07:17:37;;;;;;;;;;;;;;;10.97;31.01;98000.19;5049228;28;19959;-65
2022/05/24 07:20:03;;;;;;;;;;;;;;;10.83;31.38;98007.97;5047945;28;19925;-66
2022/05/24 07:22:29;;;;;;;;;;;;;;;10.86;32.72;98034.72;5033408;28;20348;-65
2022/05/24 07:24:55;;;;;;;;;;;;;;;10.50;34.52;98023.47;5032942;28;19968;-66
2022/05/24 07:27:21;;;;;;;;;;;;;;;10.15;34.77;98045.50;5051251;28;19924;-64
2022/05/24 07:29:46;;;;;;;;;;;;;;;9.80;36.10;98056.91;5050769;28;19924;-66
2022/05/24 07:32:12;;;;;;;;;;;;;;;9.76;37.45;98051.31;5048050;28;19925;-64
2022/05/24 07:34:37;;;;;;;;;;;;;;;9.67;37.08;98063.47;5049335;28;19971;-65
2022/05/24 07:37:04;;;;;;;;;;;;;;;9.73;37.51;98094.97;5031448;28;19951;-64
2022/05/24 07:39:29;;;;;;;;;;;;;;;9.40;38.45;98088.31;5049457;28;19925;-67
2022/05/24 07:47:29;;;;;;;;;;;;;;;9.34;39.32;98086.72;5048774;28;20313;-65
2022/05/24 07:49:55;;;;;;;;;;;;;;;9.26;39.43;98079.28;5048379;28;19925;-65
2022/05/24 07:52:21;;;;;;;;;;;;;;;9.12;40.07;98081.63;5049131;28;19931;-66
2022/05/24 07:54:46;;;;;;;;;;;;;;;9.08;40.83;98081.34;5031568;28;20413;-67
2022/05/24 07:57:12;;;;;;;;;;;;;;;9.12;40.54;98100.16;5031965;28;19943;-65
2022/05/24 07:59:37;;;;;;;;;;;;;;;9.04;41.26;98101.44;5050182;28;20006;-65
2022/05/24 08:02:04;;;;;;;;;;;;;;;8.87;41.84;98103.47;5049962;28;20337;-65
2022/05/24 08:04:30;;;;;;;;;;;;;;;8.81;42.26;98093.91;5051351;28;19925;-65
2022/05/24 08:06:56;;;;;;;;;;;;;;;8.86;42.20;98115.88;5051423;28;19925;-66
2022/05/24 08:09:21;;;;;;;;;;;;;;;8.73;42.38;98102.34;5050846;28;19929;-65
2022/05/24 08:11:47;;;;;;;;;;;;;;;8.41;42.96;98114.59;5050136;28;19956;-66
2022/05/24 08:14:12;;;;;;;;;;;;;;;8.51;43.77;98121.75;5050076;28;19973;-66
2022/05/24 08:16:38;;;;;;;;;;;;;;;8.30;44.13;98114.72;5049477;28;20047;-66
2022/05/24 08:19:04;;;;;;;;;;;;;;;8.38;44.33;98124.81;5049454;28;19925;-67
2022/05/24 08:21:30;;;;;;;;;;;;;;;8.30;44.94;98125.28;5048706;28;19924;-67
2022/05/24 08:23:56;;;;;;;;;;;;;;;8.41;44.19;98125.16;5049910;28;19956;-67
2022/05/24 08:26:22;;;;;;;;;;;;;;;8.58;43.99;98124.19;5050314;28;20070;-67
2022/05/24 08:28:47;;;;;;;;;;;;;;;8.57;44.47;98130.53;5032407;28;19936;-66
2022/05/24 08:31:14;;;;;;;;;;;;;;;8.55;44.16;98143.16;5032087;28;19925;-65
2022/05/24 08:33:40;;;;;;;;;;;;;;;8.66;44.00;98146.69;5053635;28;19935;-67
2022/05/24 08:36:05;;;;;;;;;;;;;;;8.77;44.26;98135.94;5051955;28;19924;-66
2022/05/24 08:38:31;;;;;;;;;;;;;;;8.89;43.74;98148.16;5053501;28;19962;-65
2022/05/24 08:41:00;;;;;;;;;;;;;;;8.91;43.75;98149.44;5053800;28;19925;-65
2022/05/24 08:43:44;;;;;;;;;;;;;;;9.03;43.44;98154.53;5052785;28;20345;-66
2022/05/24 08:49:03;;;;;;;;;;;;;;;9.29;42.93;98160.72;5052619;28;20377;-65
2022/05/24 08:51:38;;;;;;;;;;;;;;;9.17;42.68;98182.09;5052984;28;19925;-66
2022/05/24 08:54:11;;;;;;;;;;;;;;;9.16;43.12;98177.09;5054472;28;19928;-65
2022/05/24 08:56:56;;;;;;;;;;;;;;;8.90;43.58;98169.00;5053272;28;19924;-66
2022/05/24 08:59:29;;;;;;;;;;;;;;;8.97;43.27;98174.06;5053081;28;20286;-65
2022/05/24 09:01:56;;;;;;;;;;;;;;;8.80;43.08;98179.53;5035551;28;19925;-66
2022/05/24 09:04:22;;;;;;;;;;;;;;;8.79;44.53;98170.78;5052530;28;19980;-63
2022/05/24 09:06:56;;;;;;;;;;;;;;;8.99;44.05;98161.41;5050348;28;19971;-65
2022/05/24 09:09:40;;;;;;;;;;;;;;;9.45;42.80;98178.25;5054145;28;20023;-66
2022/05/24 09:12:07;;;;;;;;;;;;;;;9.67;42.73;98174.63;5055048;28;19925;-63
2022/05/24 09:14:32;;;;;;;;;;;;;;;9.78;42.48;98177.03;5052721;28;19950;-66
2022/05/24 09:17:14;;;;;;;;;;;;;;;9.96;41.47;98177.59;5052315;28;19970;-65
2022/05/24 09:19:40;;;;;;;;;;;;;;;9.83;42.35;98186.06;5034882;28;19956;-65
2022/05/24 09:22:06;;;;;;;;;;;;;;;9.92;41.11;98192.41;5051854;28;19972;-67
2022/05/24 09:24:40;;;;;;;;;;;;;;;9.72;42.43;98201.88;5052794;28;19924;-65
2022/05/24 09:27:14;;;;;;;;;;;;;;;9.37;41.92;98207.06;5053140;28;19924;-65
2022/05/24 09:30:06;;;;;;;;;;;;;;;9.13;43.30;98217.25;5050784;28;19935;-65
2022/05/24 09:32:39;;;;;;;;;;;;;;;8.99;43.47;98219.53;5051134;28;19935;-66
2022/05/24 09:35:05;;;;;;;;;;;;;;;8.92;43.77;98213.69;5051248;28;19924;-65
2022/05/24 09:37:30;;;;;;;;;;;;;;;9.01;43.72;98238.59;5051318;28;19928;-64
2022/05/24 09:39:57;;;;;;;;;;;;;;;8.75;44.43;98241.06;5051738;28;19924;-66
2022/05/24 09:42:28;;;;;;;;;;;;;;;8.89;44.62;98222.94;5032130;28;19929;-68
2022/05/24 09:45:02;;;;;;;;;;;;;;;9.07;44.80;98224.34;5030802;28;19931;-64
2022/05/24 09:47:31;;;;;;;;;;;;;;;9.07;44.61;98245.50;5051162;28;19929;-65
2022/05/24 09:50:15;;;;;;;;;;;;;;;9.18;44.80;98241.09;5052693;28;20025;-65
2022/05/24 09:53:01;;;;;;;;;;;;;;;9.09;45.18;98267.22;5053386;28;19944;-64
2022/05/24 09:55:26;;;;;;;;;;;;;;;9.09;45.22;98254.78;5018622;28;20409;-66
2022/05/24 09:57:52;;;;;;;;;;;;;;;9.32;44.57;98272.09;5048469;28;19929;-67
2022/05/24 10:00:20;;;;;;;;;;;;;;;9.24;44.28;98256.72;5050361;28;19925;-66
2022/05/24 10:02:46;;;;;;;;;;;;;;;9.21;44.87;98251.16;5050967;28;20390;-66
2022/05/24 10:05:23;;;;;;;;;;;;;;;9.16;44.59;98251.91;5051503;28;19929;-65
2022/05/24 10:10:37;;;;;;;8.75;2.45;;;;;;;9.00;44.11;98261.59;5088934;27;20157;-62
2022/05/24 10:13:40;;;;;;;4.28;2.33;;;;;;;8.97;44.47;98285.06;5069360;28;20142;-64
2022/05/24 10:16:09;;;;;;;8.38;2.42;;;;;;;8.65;44.99;98270.06;4972391;28;20046;-66
2022/05/24 10:18:43;;;;;;;5.20;2.30;;;;;;;8.71;44.67;98282.25;5071046;28;20048;-64
2022/05/24 10:21:11;;;;;;;4.50;2.50;;;;;;;8.84;44.27;98281.81;5087668;28;20037;-65
2022/05/24 10:23:40;;;;;;;8.35;2.53;;;;;;;8.77;44.26;98267.25;5069561;28;20052;-65
2022/05/24 10:26:41;;;;;;;2.22;1.92;;;;;;;8.92;44.56;98256.78;5086876;28;20048;-66
2022/05/24 10:29:30;;;;;;;5.00;2.10;;;;;;;9.13;43.11;98273.56;5086286;28;20509;-64
2022/05/24 10:32:03;;;;;;;4.10;2.65;;;;;;;9.40;42.68;98270.81;5087077;28;20048;-64
2022/05/24 10:41:26;;;;;;;3.97;2.10;;;;;;;10.06;42.35;98274.75;5034911;28;20052;-64
2022/05/24 10:44:03;;;;;;;3.63;2.97;;;;;;;9.97;40.40;98267.34;5065671;28;20056;-62
2022/05/24 10:46:41;;;;;;;2.75;2.13;;;;;;;9.78;40.61;98269.66;5066034;28;20040;-64
2022/05/24 10:49:22;;;;;;;2.22;2.00;;;;;;;9.74;40.72;98278.38;5067548;28;20063;-62
2022/05/24 10:51:56;;;;;;;2.63;1.80;;;;;;;9.46;40.46;98272.41;5087003;28;20040;-63
2022/05/24 10:54:29;;;;;;;2.45;1.60;;;;;;;9.25;40.78;98271.53;5086843;28;20386;-64
2022/05/24 10:57:00;;;;;;;4.28;1.55;;;;;;;9.12;41.23;98271.16;5069013;28;20036;-62
2022/05/24 10:59:40;;;;;;;5.38;1.90;;;;;;;9.29;40.99;98277.09;5086408;28;20048;-62
2022/05/24 11:02:16;;;;;;;3.80;1.70;;;;;;;9.37;40.79;98284.53;5049152;28;20445;-63
2022/05/24 11:04:50;;;;;;;5.68;1.60;;;;;;;9.58;41.03;98280.16;5047460;28;20460;-63
2022/05/24 11:07:19;;;;;;;8.73;1.50;;;;;;;9.72;40.79;98277.84;5048091;28;20041;-62
2022/05/24 11:10:16;;;;;;;3.72;1.75;;;;;;;9.93;39.96;98270.75;5068616;28;20052;-63
2022/05/24 11:12:46;;;;;;;2.45;1.60;;;;;;;10.00;40.40;98305.75;5061691;28;20040;-62
2022/05/24 11:15:19;;;;;;;4.70;1.48;;;;;;;10.02;40.03;98295.66;5068056;28;20113;-63
2022/05/24 11:17:46;;;;;;;4.30;2.45;;;;;;;9.97;40.54;98295.66;5067510;28;20055;-64
2022/05/24 11:20:13;;;;;;;2.20;1.30;;;;;;;9.72;40.00;98299.78;5062855;28;20060;-63
2022/05/24 11:23:04;;;;;;;5.90;1.70;;;;;;;9.66;40.40;98303.47;5053952;28;20049;-62
2022/05/24 11:26:13;;;;;;;2.90;1.45;;;;;;;9.69;39.40;98310.09;5054433;28;20087;-65
2022/05/24 11:28:47;;;;;;;1.55;1.30;;;;;;;9.78;38.40;98319.16;5053897;28;20185;-62
2022/05/24 11:31:37;;;;;;;2.17;1.17;;;;;;;9.60;38.62;98304.50;5020514;28;20040;-62
2022/05/24 11:34:11;;;;;;;2.40;1.60;;;;;;;9.46;38.36;98325.31;5071493;28;20086;-63
2022/05/24 11:36:43;;;;;;;4.25;1.30;;;;;;;9.60;37.83;98315.09;5053652;28;20040;-63
2022/05/24 11:39:29;;;;;;;1.80;1.33;;;;;;;9.72;38.08;98328.91;5033313;28;20045;-64
2022/05/24 11:42:17;;;;;;;6.28;2.55;;;;;;;9.76;38.41;98345.06;5035527;28;20037;-63
2022/05/24 11:44:43;;;;;;;3.42;1.20;;;;;;;9.56;38.66;98343.13;5034753;28;20540;-63
2022/05/24 11:47:09;;;;;;;2.25;1.20;;;;;;;9.45;38.89;98328.25;5054786;28;20557;-62
2022/05/24 11:49:34;;;;;;;1.13;1.02;;;;;;;9.58;38.72;98337.56;5061257;28;20496;-64
2022/05/24 11:52:43;;;;;;;1.58;1.10;;;;;;;9.52;38.87;98347.31;5085898;28;20075;-63
2022/05/24 11:55:09;;;;;;;4.28;1.30;;;;;;;9.68;39.08;98345.56;5052564;28;20481;-65
2022/05/24 11:57:41;;;;;;;2.97;1.20;;;;;;;9.76;39.38;98347.72;5050059;28;20077;-65
2022/05/24 12:00:10;;;;;;;3.47;0.93;;;;;;;9.89;39.28;98355.19;5049964;28;20105;-65
2022/05/24 12:07:54;;;;;;;8.98;1.30;;;;;;;9.98;39.69;98355.50;5071552;28;20044;-66
2022/05/24 12:08:28;;;;;;;1.85;1.17;;;;;;;9.75;39.93;98367.28;5070961;28;20049;-65
2022/05/24 12:11:10;;;;;;;4.57;1.10;;;;;;;9.77;39.81;98383.72;5072044;28;20123;-63
2022/05/24 12:13:38;;;;;;;2.00;1.02;;;;;;;9.71;41.07;98387.41;5051905;28;20131;-63
2022/05/24 12:16:24;;;;;;;2.45;1.20;;;;;;;9.77;40.98;98381.06;5053891;28;20036;-64
2022/05/24 12:18:57;;;;;;;2.80;1.10;;;;;;;9.44;42.46;98387.47;5037557;28;20040;-64
2022/05/24 12:21:43;;;;;;;4.13;1.13;;;;;;;9.25;42.93;98397.66;5071529;28;20418;-64
2022/05/24 12:24:40;;;;;;;0.98;0.98;;;;;;;9.32;43.93;98400.88;5053053;28;20084;-66
2022/05/24 12:27:07;;;;;;;4.22;1.05;;;;;;;9.30;43.37;98395.84;5072269;28;20080;-62
2022/05/24 12:29:33;;;;;;;1.10;1.00;;;;;;;9.35;43.50;98392.44;5071932;28;20063;-61
2022/05/24 12:32:06;;;;;;;1.45;1.10;;;;;;;9.43;43.80;98402.53;5052694;28;20040;-62
2022/05/24 12:34:32;;;;;;;1.92;1.20;;;;;;;9.32;43.75;98396.41;5072407;28;20482;-63
2022/05/24 12:37:00;;;;;;;1.30;1.20;;;;;;;9.46;44.00;98393.31;5054051;28;20154;-62
2022/05/24 12:39:27;;;;;;;2.22;1.40;;;;;;;9.56;42.68;98396.03;5052541;28;20045;-62
2022/05/24 12:41:58;;;;;;;1.35;1.02;;;;;;;9.64;42.20;98405.31;5037303;28;20497;-62
2022/05/24 12:44:41;;;;;;;1.05;1.02;;;;;;;9.57;41.65;98402.13;5069560;28;20106;-62
2022/05/24 12:47:06;;;;;;;2.90;1.30;;;;;;;9.51;42.17;98409.22;5051289;28;20045;-62
2022/05/24 12:49:37;;;;;;;1.52;1.27;;;;;;;9.67;42.37;98407.47;5032903;28;20060;-62
2022/05/24 12:52:15;;;;;;;1.38;1.27;;;;;;;9.46;42.84;98406.53;5056570;28;20119;-63
2022/05/24 12:54:49;;;;;;;2.03;1.10;;;;;;;9.39;42.60;98417.34;5071063;28;20041;-62
2022/05/24 12:57:38;;;;;;;1.60;1.20;;;;;;;9.18;43.78;98413.75;5052487;28;20036;-63
2022/05/24 13:00:22;;;;;;;1.20;1.10;;;;;;;9.02;44.12;98414.63;5070937;28;20072;-64
2022/05/24 13:02:53;;;;;;;1.67;1.20;;;;;;;8.94;44.65;98423.00;5070963;28;20540;-64
2022/05/24 13:05:39;;;;;;;3.63;1.10;;;;;;;9.03;45.04;98421.50;5039258;28;20048;-62
2022/05/24 13:08:05;;;;;;;3.55;1.23;;;;;;;8.97;45.23;98427.81;5051342;28;20086;-62
2022/05/24 13:10:35;;;;;;;3.55;1.50;;;;;;;9.07;45.89;98436.63;5069632;28;20527;-65
2022/05/24 13:13:09;;;;;;;2.45;1.30;;;;;;;8.94;46.52;98437.06;5035579;28;20041;-63
2022/05/24 13:15:36;;;;;;;3.83;1.20;;;;;;;8.97;46.80;98431.25;5031937;28;20044;-63
2022/05/24 13:18:08;;;;;;;3.72;1.40;;;;;;;9.15;46.40;98442.50;5049863;28;20045;-64
2022/05/24 13:20:37;;;;;;;2.75;1.60;;;;;;;9.20;46.06;98439.91;5014990;28;20517;-63
2022/05/24 13:23:26;;;;;;;1.63;1.20;;;;;;;9.30;45.95;98451.38;5050592;28;20095;-63
2022/05/24 13:25:58;;;;;;;1.00;1.00;;;;;;;9.33;45.09;98450.09;5036666;28;20060;-65
2022/05/24 13:28:52;;;;;;;1.25;1.15;;;;;;;9.03;46.13;98467.28;5046957;28;20053;-63